サンフランシスコ の空港の天気 - METARとTAF

サンフランシスコ国際空港 ( KSFO / SFO ) - アメリカ カリフォルニア州サンマテオ郡
飛行場実況気象(Metar)
観測時間07/28 18:56 PDT (07/29 01:56 UTC)
風向・風速北西 8m/s
視程10km以上
天気現象
少しの雲 雲底高度 120m
全天の4割程度の雲 雲底高度 5490m
全天の8割程度の雲 雲底高度 6100m
気温17.8℃
湿度73%
気圧1014.4hPa
METARKSFO 290156Z 31016KT 10SM FEW004 SCT180 BKN200 18/13 A2996 RMK AO2 SLP144 T01780128
過去の天気等 Google飛行場航空写真 Wunderground天気予報

過去48時間のMETAR

飛行場予報(TAF)
発表時間: 7/28 16:25 PDT (7/28 23:25 UTC)
予報対象時間: 28日17時 PDT ~ 29日23時 PDT
風向・風速西北西 10m/s
視程10km以上
少しの雲 雲底高度 180m
全天の4割程度の雲 雲底高度 4270m
28日22時 PDT から
風向・風速西北西 5m/s
視程10km以上
少しの雲 雲底高度 300m
29日3時 PDT から
風向・風速西北西 3m/s
視程10km以上
全天の4割程度の雲 雲底高度 240m
29日10時 PDT から
風向・風速北西 4m/s
視程10km以上
少しの雲 雲底高度 300m
29日15時 PDT から
風向・風速北西 10m/s
視程10km以上
なし
29日21時 PDT から
風向・風速西北西 6m/s
視程10km以上
少しの雲 雲底高度 300m
KSFO 282325Z 2900/3006 30020KT P6SM FEW006 SCT140
FM290500 30010KT P6SM FEW010
FM291000 29005KT P6SM SCT008
FM291700 31007KT P6SM FEW010
FM292200 31019KT P6SM SKC
FM300400 30011KT P6SM FEW010